Time;durP1;ratioP1;P1;durP2;ratioP2;P2;SDS_P1;SDS_P2;PMS_P1;PMS_P2;Temp;Humidity;BMP_temperature;BMP_pressure;BME280_temperature;BME280_humidity;BME280_pressure;Samples;Min_cycle;Max_cycle;Signal;HPM_P1;HPM_P2
2023/04/27 00:00:27;;;;;;;6.18;4.28;;;;;;;;;;5066511;28;20068;-77
2023/04/27 00:02:53;;;;;;;5.32;4.60;;;;;;;;;;5044181;28;20476;-77
2023/04/27 00:05:19;;;;;;;8.18;4.72;;;;;;;;;;5046752;28;20040;-78
2023/04/27 00:07:45;;;;;;;5.47;4.80;;;;;;;;;;5060580;28;20047;-77
2023/04/27 00:10:12;;;;;;;7.03;4.95;;;;;;;;;;5053733;28;20052;-78
2023/04/27 00:12:38;;;;;;;5.10;4.50;;;;;;;;;;5053552;28;20048;-78
2023/04/27 00:15:04;;;;;;;5.75;4.63;;;;;;;;;;5046865;28;20051;-77
2023/04/27 00:17:31;;;;;;;5.47;4.30;;;;;;;;;;5037752;28;20044;-78
2023/04/27 00:19:57;;;;;;;4.50;4.10;;;;;;;;;;5068168;28;20045;-77
2023/04/27 00:22:23;;;;;;;5.57;4.35;;;;;;;;;;5042507;28;20048;-78
2023/04/27 00:24:49;;;;;;;6.32;4.28;;;;;;;;;;5041991;28;20076;-78
2023/04/27 00:27:15;;;;;;;6.47;4.45;;;;;;;;;;5063069;28;20040;-78
2023/04/27 00:29:41;;;;;;;5.63;4.70;;;;;;;;;;5045704;28;20115;-78
2023/04/27 00:32:08;;;;;;;4.40;3.72;;;;;;;;;;5066079;28;20049;-78
2023/04/27 00:34:34;;;;;;;5.85;4.50;;;;;;;;;;5066289;28;20101;-78
2023/04/27 00:37:00;;;;;;;4.93;3.92;;;;;;;;;;5041954;28;20044;-77
2023/04/27 00:39:26;;;;;;;5.50;3.92;;;;;;;;;;5043856;28;20053;-78
2023/04/27 00:41:52;;;;;;;5.15;3.38;;;;;;;;;;5065793;28;20080;-77
2023/04/27 00:44:25;;;;;;;4.00;3.60;;;;;;;;;;5067395;28;20047;-77
2023/04/27 00:46:51;;;;;;;3.60;3.30;;;;;;;;;;5075137;28;20045;-78
2023/04/27 00:49:17;;;;;;;4.60;3.67;;;;;;;;;;5055010;28;20044;-77
2023/04/27 00:51:43;;;;;;;5.53;3.53;;;;;;;;;;5059362;28;20090;-78
2023/04/27 00:54:10;;;;;;;3.42;3.13;;;;;;;;;;5067466;28;20040;-78
2023/04/27 00:56:36;;;;;;;6.15;3.45;;;;;;;;;;5048095;28;20087;-77
2023/04/27 00:59:02;;;;;;;5.30;3.90;;;;;;;;;;5046114;28;20146;-78
2023/04/27 01:01:29;;;;;;;4.30;3.85;;;;;;;;;;5048806;28;20182;-78
2023/04/27 01:03:55;;;;;;;5.05;3.90;;;;;;;;;;5049056;28;20146;-77
2023/04/27 01:06:21;;;;;;;5.43;4.13;;;;;;;;;;5057782;28;20041;-77
2023/04/27 01:08:47;;;;;;;6.05;4.03;;;;;;;;;;5053049;28;20049;-77
2023/04/27 01:11:14;;;;;;;6.68;4.00;;;;;;;;;;5049129;28;20041;-78
2023/04/27 01:13:40;;;;;;;6.20;3.95;;;;;;;;;;5068912;28;20074;-78
2023/04/27 01:16:06;;;;;;;4.57;4.05;;;;;;;;;;5065554;28;20045;-78
2023/04/27 01:18:32;;;;;;;6.22;4.30;;;;;;;;;;5058592;28;20045;-78
2023/04/27 01:20:59;;;;;;;5.35;4.20;;;;;;;;;;5038001;28;20529;-78
2023/04/27 01:23:25;;;;;;;9.18;4.45;;;;;;;;;;5061040;28;20055;-77
2023/04/27 01:25:51;;;;;;;4.60;3.78;;;;;;;;;;5046125;28;20076;-77
2023/04/27 01:28:17;;;;;;;4.75;4.20;;;;;;;;;;5068662;28;20426;-78
2023/04/27 01:30:43;;;;;;;5.15;4.22;;;;;;;;;;5064889;28;20039;-78
2023/04/27 01:33:09;;;;;;;5.65;4.38;;;;;;;;;;5041657;28;20040;-78
2023/04/27 01:35:35;;;;;;;5.57;4.13;;;;;;;;;;5047551;28;20048;-77
2023/04/27 01:38:02;;;;;;;4.68;4.28;;;;;;;;;;5064698;28;20044;-78
2023/04/27 01:40:28;;;;;;;6.78;4.43;;;;;;;;;;5071529;28;20377;-78
2023/04/27 01:42:54;;;;;;;8.77;4.57;;;;;;;;;;5067951;28;20040;-78
2023/04/27 01:45:21;;;;;;;7.50;4.43;;;;;;;;;;5067575;28;20051;-78
2023/04/27 01:47:47;;;;;;;6.97;4.50;;;;;;;;;;5043440;28;20090;-77
2023/04/27 01:50:13;;;;;;;7.78;4.80;;;;;;;;;;5060615;28;20443;-77
2023/04/27 01:52:39;;;;;;;7.53;4.65;;;;;;;;;;5045370;28;20128;-78
2023/04/27 01:55:05;;;;;;;5.18;4.45;;;;;;;;;;5055350;28;20048;-77
2023/04/27 01:57:31;;;;;;;8.10;5.00;;;;;;;;;;5038914;28;20282;-78
2023/04/27 01:59:57;;;;;;;6.25;4.90;;;;;;;;;;5055271;28;20154;-77
2023/04/27 02:02:23;;;;;;;7.60;5.20;;;;;;;;;;5038424;28;20036;-78
2023/04/27 02:04:49;;;;;;;5.68;4.75;;;;;;;;;;5057424;28;20040;-78
2023/04/27 02:07:15;;;;;;;6.78;4.72;;;;;;;;;;5041228;28;20102;-77
2023/04/27 02:09:41;;;;;;;6.60;4.60;;;;;;;;;;5038522;28;20048;-77
2023/04/27 02:12:07;;;;;;;7.35;4.80;;;;;;;;;;5056706;28;20713;-77
2023/04/27 02:14:33;;;;;;;6.55;4.93;;;;;;;;;;5057641;28;20037;-77
2023/04/27 02:16:59;;;;;;;5.72;4.75;;;;;;;;;;5061238;28;20036;-78
2023/04/27 02:19:25;;;;;;;8.20;5.03;;;;;;;;;;5045193;28;21397;-77
2023/04/27 02:21:52;;;;;;;7.20;4.90;;;;;;;;;;5063722;28;20541;-77
2023/04/27 02:24:18;;;;;;;5.25;4.57;;;;;;;;;;5045258;28;20045;-77
2023/04/27 02:26:44;;;;;;;7.82;4.78;;;;;;;;;;5064429;28;20048;-77
2023/04/27 02:29:10;;;;;;;5.50;4.53;;;;;;;;;;5063516;28;20037;-77
2023/04/27 02:31:36;;;;;;;6.38;4.55;;;;;;;;;;5049919;28;20067;-78
2023/04/27 02:34:02;;;;;;;6.68;4.90;;;;;;;;;;5058176;28;20174;-78
2023/04/27 02:36:28;;;;;;;7.10;4.70;;;;;;;;;;5044612;28;20743;-77
2023/04/27 02:38:55;;;;;;;6.38;4.95;;;;;;;;;;5039447;28;20488;-77
2023/04/27 02:41:21;;;;;;;6.50;4.75;;;;;;;;;;5063441;28;20047;-77
2023/04/27 02:43:47;;;;;;;7.35;4.68;;;;;;;;;;5059028;28;20128;-77
2023/04/27 02:46:13;;;;;;;5.68;4.60;;;;;;;;;;5045831;28;20131;-77
2023/04/27 02:48:39;;;;;;;5.15;4.15;;;;;;;;;;5048039;28;20040;-77
2023/04/27 02:51:05;;;;;;;8.23;4.47;;;;;;;;;;5041599;28;20044;-77
2023/04/27 02:53:32;;;;;;;7.63;4.70;;;;;;;;;;5041823;28;20056;-77
2023/04/27 02:55:58;;;;;;;6.53;4.47;;;;;;;;;;5062034;28;20055;-77
2023/04/27 02:58:24;;;;;;;7.38;4.20;;;;;;;;;;5056690;28;20037;-77
2023/04/27 03:00:57;;;;;;;7.38;4.85;;;;;;;;;;5041553;28;20040;-77
2023/04/27 03:03:23;;;;;;;8.85;4.50;;;;;;;;;;5044312;28;20051;-77
2023/04/27 03:05:49;;;;;;;4.28;3.88;;;;;;;;;;5061593;28;20051;-77
2023/04/27 03:08:15;;;;;;;5.88;4.28;;;;;;;;;;5041960;28;20048;-77
2023/04/27 03:10:41;;;;;;;6.05;4.40;;;;;;;;;;5043879;28;20499;-77
2023/04/27 03:13:07;;;;;;;7.32;4.82;;;;;;;;;;5059956;28;20051;-77
2023/04/27 03:15:34;;;;;;;6.15;4.40;;;;;;;;;;5059785;28;20036;-77
2023/04/27 03:18:00;;;;;;;5.00;4.10;;;;;;;;;;5043978;28;20045;-77
2023/04/27 03:20:26;;;;;;;6.40;4.32;;;;;;;;;;5042708;28;20734;-77
2023/04/27 03:22:52;;;;;;;6.38;4.47;;;;;;;;;;5039331;28;20045;-77
2023/04/27 03:25:18;;;;;;;6.78;4.18;;;;;;;;;;5040420;28;20045;-77
2023/04/27 03:27:44;;;;;;;5.60;4.10;;;;;;;;;;5044362;28;20040;-77
2023/04/27 03:30:10;;;;;;;6.60;4.47;;;;;;;;;;5059984;28;20045;-77
2023/04/27 03:32:36;;;;;;;6.93;4.40;;;;;;;;;;5036297;28;20045;-77
2023/04/27 03:35:03;;;;;;;6.15;4.53;;;;;;;;;;5038461;28;20058;-77
2023/04/27 03:37:29;;;;;;;6.88;4.15;;;;;;;;;;5056535;28;20110;-77
2023/04/27 03:39:55;;;;;;;5.88;4.07;;;;;;;;;;5062352;28;20385;-77
2023/04/27 03:42:21;;;;;;;5.07;3.88;;;;;;;;;;5045353;28;20451;-77
2023/04/27 03:44:47;;;;;;;6.05;4.28;;;;;;;;;;5061921;28;20036;-77
2023/04/27 03:47:13;;;;;;;4.57;3.70;;;;;;;;;;5064241;28;20420;-77
2023/04/27 03:49:39;;;;;;;4.30;3.90;;;;;;;;;;5039433;28;20044;-77
2023/04/27 03:52:05;;;;;;;5.60;4.72;;;;;;;;;;5065634;28;20087;-77
2023/04/27 03:54:31;;;;;;;4.88;4.22;;;;;;;;;;5063773;28;20481;-77
2023/04/27 03:56:57;;;;;;;5.00;4.13;;;;;;;;;;5063473;28;20128;-77
2023/04/27 03:59:23;;;;;;;6.60;4.30;;;;;;;;;;5048750;28;20139;-77
2023/04/27 04:01:49;;;;;;;6.88;4.35;;;;;;;;;;5059608;28;20230;-77
2023/04/27 04:04:15;;;;;;;7.32;4.63;;;;;;;;;;5058945;28;20040;-77
2023/04/27 04:06:41;;;;;;;5.05;4.10;;;;;;;;;;5061182;28;20036;-77
2023/04/27 04:09:07;;;;;;;7.18;4.30;;;;;;;;;;5043969;28;20064;-76
2023/04/27 04:11:33;;;;;;;5.22;4.30;;;;;;;;;;5046268;28;20475;-77
2023/04/27 04:13:59;;;;;;;5.93;4.32;;;;;;;;;;5048722;28;20047;-77
2023/04/27 04:16:25;;;;;;;5.40;4.47;;;;;;;;;;5066950;28;20056;-77
2023/04/27 04:18:51;;;;;;;5.80;4.28;;;;;;;;;;5066730;28;20072;-77
2023/04/27 04:21:17;;;;;;;5.60;4.43;;;;;;;;;;5053964;28;20068;-77
2023/04/27 04:23:44;;;;;;;5.80;3.95;;;;;;;;;;5040840;28;20507;-77
2023/04/27 04:26:11;;;;;;;5.82;4.20;;;;;;;;;;5064704;28;20153;-77
2023/04/27 04:28:37;;;;;;;4.72;4.22;;;;;;;;;;5045814;28;20041;-77
2023/04/27 04:31:04;;;;;;;5.80;4.20;;;;;;;;;;5060462;28;20075;-76
2023/04/27 04:33:30;;;;;;;5.82;4.00;;;;;;;;;;5068236;28;20113;-76
2023/04/27 04:35:57;;;;;;;5.57;3.95;;;;;;;;;;5058334;28;20087;-76
2023/04/27 04:38:23;;;;;;;8.50;4.40;;;;;;;;;;5058976;28;20136;-77
2023/04/27 04:40:52;;;;;;;4.20;3.80;;;;;;;;;;5070103;28;20048;-77
2023/04/27 04:43:18;;;;;;;4.70;3.92;;;;;;;;;;5051926;28;20075;-77
2023/04/27 04:45:45;;;;;;;5.43;4.25;;;;;;;;;;5064835;28;20076;-77
2023/04/27 04:48:13;;;;;;;4.97;4.30;;;;;;;;;;5067879;28;20040;-77
2023/04/27 04:50:40;;;;;;;5.47;4.53;;;;;;;;;;5072582;28;20036;-77
2023/04/27 04:53:07;;;;;;;6.53;3.92;;;;;;;;;;5069229;28;20043;-77
2023/04/27 04:55:33;;;;;;;7.80;4.65;;;;;;;;;;5049573;28;20056;-77
2023/04/27 04:57:59;;;;;;;6.55;4.75;;;;;;;;;;5048929;28;20060;-77
2023/04/27 05:00:25;;;;;;;8.82;4.60;;;;;;;;;;5070075;28;20041;-77
2023/04/27 05:02:51;;;;;;;7.35;4.72;;;;;;;;;;5050320;28;20048;-76
2023/04/27 05:05:17;;;;;;;6.07;4.22;;;;;;;;;;5070369;28;20052;-77
2023/04/27 05:07:43;;;;;;;6.15;4.28;;;;;;;;;;5038939;28;20064;-77
2023/04/27 05:10:10;;;;;;;6.10;4.10;;;;;;;;;;5047881;28;20040;-77
2023/04/27 05:12:36;;;;;;;6.97;4.38;;;;;;;;;;5060694;28;20066;-77
2023/04/27 05:15:02;;;;;;;5.75;4.15;;;;;;;;;;5068483;28;20480;-77
2023/04/27 05:17:28;;;;;;;6.32;4.30;;;;;;;;;;5048605;28;20083;-77
2023/04/27 05:19:54;;;;;;;8.30;4.75;;;;;;;;;;5064494;28;20044;-77
2023/04/27 05:22:20;;;;;;;6.97;4.35;;;;;;;;;;5051080;28;20045;-77
2023/04/27 05:24:46;;;;;;;7.70;4.72;;;;;;;;;;5049554;28;20051;-77
2023/04/27 05:27:13;;;;;;;7.45;4.50;;;;;;;;;;5064298;28;20465;-77
2023/04/27 05:29:39;;;;;;;7.55;4.00;;;;;;;;;;5045739;28;20374;-77
2023/04/27 05:32:06;;;;;;;6.30;4.25;;;;;;;;;;5069021;28;20040;-77
2023/04/27 05:34:31;;;;;;;9.32;4.20;;;;;;;;;;5046272;28;20047;-77
2023/04/27 05:36:57;;;;;;;6.47;4.22;;;;;;;;;;5047794;28;20040;-77
2023/04/27 05:39:23;;;;;;;5.82;4.72;;;;;;;;;;5044706;28;20485;-77
2023/04/27 05:41:50;;;;;;;6.95;4.38;;;;;;;;;;5044114;28;20080;-77
2023/04/27 05:44:16;;;;;;;5.47;4.00;;;;;;;;;;5049605;28;20538;-77
2023/04/27 05:46:42;;;;;;;6.95;4.80;;;;;;;;;;5065032;28;20068;-77
2023/04/27 05:49:08;;;;;;;5.45;4.60;;;;;;;;;;5042988;28;20072;-77
2023/04/27 05:51:34;;;;;;;5.68;4.40;;;;;;;;;;5041412;28;20037;-76
2023/04/27 05:54:00;;;;;;;5.28;4.15;;;;;;;;;;5045021;28;20118;-77
2023/04/27 05:56:26;;;;;;;7.18;4.15;;;;;;;;;;5044599;28;21822;-77
2023/04/27 05:58:52;;;;;;;5.55;4.63;;;;;;;;;;5042338;28;20049;-77
2023/04/27 06:01:18;;;;;;;6.03;4.50;;;;;;;;;;5040871;28;20044;-77
2023/04/27 06:03:44;;;;;;;7.65;4.78;;;;;;;;;;5044544;28;20059;-77
2023/04/27 06:06:11;;;;;;;6.35;5.00;;;;;;;;;;5059771;28;20041;-77
2023/04/27 06:08:38;;;;;;;8.20;4.70;;;;;;;;;;5061562;28;20570;-77
2023/04/27 06:11:04;;;;;;;6.57;4.45;;;;;;;;;;5041944;28;20443;-77
2023/04/27 06:13:32;;;;;;;5.60;4.20;;;;;;;;;;5068294;28;20093;-77
2023/04/27 06:15:58;;;;;;;7.13;4.28;;;;;;;;;;5057649;28;20048;-77
2023/04/27 06:18:24;;;;;;;10.07;4.47;;;;;;;;;;5062106;28;20061;-77
2023/04/27 06:20:50;;;;;;;9.93;5.63;;;;;;;;;;5050240;28;20408;-77
2023/04/27 06:23:16;;;;;;;9.05;4.93;;;;;;;;;;5058814;28;20036;-76
2023/04/27 06:25:42;;;;;;;10.25;6.32;;;;;;;;;;5040496;28;20037;-77
2023/04/27 06:28:08;;;;;;;5.03;4.15;;;;;;;;;;5049481;28;20041;-77
2023/04/27 06:30:34;;;;;;;6.75;4.00;;;;;;;;;;5062654;28;20428;-77
2023/04/27 06:33:00;;;;;;;9.32;5.13;;;;;;;;;;5059131;28;20063;-77
2023/04/27 06:35:26;;;;;;;4.32;3.90;;;;;;;;;;5068683;28;20052;-77
2023/04/27 06:37:52;;;;;;;6.57;4.03;;;;;;;;;;5065348;28;20488;-76
2023/04/27 06:40:18;;;;;;;8.13;4.30;;;;;;;;;;5043291;28;20061;-77
2023/04/27 06:42:44;;;;;;;8.73;4.93;;;;;;;;;;5043825;28;20064;-77
2023/04/27 06:45:11;;;;;;;13.90;4.95;;;;;;;;;;5044667;28;20107;-77
2023/04/27 06:47:37;;;;;;;7.43;4.70;;;;;;;;;;5067117;28;20076;-76
2023/04/27 06:50:03;;;;;;;9.43;4.13;;;;;;;;;;5063922;28;20068;-76
2023/04/27 06:52:31;;;;;;;5.45;3.88;;;;;;;;;;5045645;28;20056;-76
2023/04/27 06:54:57;;;;;;;5.63;3.92;;;;;;;;;;5061617;28;20522;-74
2023/04/27 06:57:23;;;;;;;5.50;4.10;;;;;;;;;;5065914;28;20059;-76
2023/04/27 06:59:50;;;;;;;5.65;4.10;;;;;;;;;;5064637;28;20044;-76
2023/04/27 07:02:16;;;;;;;8.82;4.28;;;;;;;;;;5045162;28;20485;-76
2023/04/27 07:04:43;;;;;;;5.18;3.70;;;;;;;;;;5051550;28;20106;-76
2023/04/27 07:07:09;;;;;;;6.85;4.03;;;;;;;;;;5058976;28;20053;-76
2023/04/27 07:09:36;;;;;;;6.70;4.25;;;;;;;;;;5037112;28;20051;-76
2023/04/27 07:12:02;;;;;;;5.78;4.03;;;;;;;;;;5066543;28;20546;-76
2023/04/27 07:14:29;;;;;;;7.78;3.85;;;;;;;;;;5059799;28;20048;-76
2023/04/27 07:16:56;;;;;;;6.40;4.35;;;;;;;;;;5041421;28;20050;-76
2023/04/27 07:19:22;;;;;;;6.20;4.50;;;;;;;;;;5047645;28;20532;-76
2023/04/27 07:21:49;;;;;;;7.35;4.57;;;;;;;;;;5058278;28;20381;-76
2023/04/27 07:24:15;;;;;;;5.80;4.20;;;;;;;;;;5067445;28;20064;-76
2023/04/27 07:26:41;;;;;;;6.43;4.80;;;;;;;;;;5064675;28;20045;-76
2023/04/27 07:29:08;;;;;;;8.77;4.65;;;;;;;;;;5045579;28;20063;-77
2023/04/27 07:31:35;;;;;;;7.07;4.28;;;;;;;;;;5063528;28;20047;-76
2023/04/27 07:34:01;;;;;;;6.50;4.82;;;;;;;;;;5057830;28;20519;-76
2023/04/27 07:36:27;;;;;;;6.32;4.60;;;;;;;;;;5060858;28;20076;-76
2023/04/27 07:38:53;;;;;;;7.97;4.68;;;;;;;;;;5070309;28;20103;-76
2023/04/27 07:41:20;;;;;;;7.65;4.35;;;;;;;;;;5058978;28;20442;-76
2023/04/27 07:43:46;;;;;;;6.10;4.20;;;;;;;;;;5037371;28;20048;-76
2023/04/27 07:46:13;;;;;;;4.95;3.95;;;;;;;;;;5057380;28;20079;-76
2023/04/27 07:48:39;;;;;;;5.57;3.88;;;;;;;;;;5051840;28;20036;-76
2023/04/27 07:51:05;;;;;;;5.80;4.03;;;;;;;;;;5057047;28;20045;-76
2023/04/27 07:53:31;;;;;;;5.65;3.70;;;;;;;;;;5055909;28;20072;-76
2023/04/27 07:55:57;;;;;;;4.90;3.42;;;;;;;;;;5060434;28;20515;-75
2023/04/27 07:58:23;;;;;;;5.47;3.22;;;;;;;;;;5042432;28;20053;-76
2023/04/27 08:00:49;;;;;;;7.10;3.58;;;;;;;;;;5040410;28;20040;-75
2023/04/27 08:03:15;;;;;;;5.10;3.63;;;;;;;;;;5061680;28;22138;-76
2023/04/27 08:05:41;;;;;;;5.10;3.28;;;;;;;;;;5052177;28;20048;-77
2023/04/27 08:08:07;;;;;;;8.35;3.63;;;;;;;;;;5070319;28;20556;-76
2023/04/27 08:10:33;;;;;;;5.82;3.55;;;;;;;;;;5034817;28;20048;-76
2023/04/27 08:12:59;;;;;;;5.72;3.38;;;;;;;;;;5040739;28;20128;-77
2023/04/27 08:15:25;;;;;;;6.97;3.63;;;;;;;;;;5037148;28;20186;-77
2023/04/27 08:17:51;;;;;;;8.25;3.42;;;;;;;;;;5040700;28;20076;-77
2023/04/27 08:20:18;;;;;;;5.65;3.47;;;;;;;;;;5055299;28;20515;-77
2023/04/27 08:22:44;;;;;;;4.03;3.38;;;;;;;;;;5057462;28;20040;-77
2023/04/27 08:25:10;;;;;;;6.22;3.33;;;;;;;;;;5034637;28;20037;-77
2023/04/27 08:27:36;;;;;;;5.22;2.83;;;;;;;;;;5041989;28;20178;-77
2023/04/27 08:30:03;;;;;;;8.82;3.40;;;;;;;;;;5060222;28;20246;-77
2023/04/27 08:32:29;;;;;;;3.35;3.05;;;;;;;;;;5054725;28;20102;-77
2023/04/27 08:34:55;;;;;;;3.60;3.05;;;;;;;;;;5060069;28;20075;-77
2023/04/27 08:37:21;;;;;;;4.35;2.92;;;;;;;;;;5059018;28;20048;-77
2023/04/27 08:39:48;;;;;;;6.88;3.05;;;;;;;;;;5035114;28;20045;-77
2023/04/27 08:42:14;;;;;;;6.82;3.17;;;;;;;;;;5033312;28;20045;-76
2023/04/27 08:44:40;;;;;;;5.07;2.83;;;;;;;;;;5058108;28;20041;-76
2023/04/27 08:47:07;;;;;;;3.92;3.05;;;;;;;;;;5037262;28;20045;-76
2023/04/27 08:49:34;;;;;;;3.67;3.00;;;;;;;;;;5066267;28;20190;-76
2023/04/27 08:52:01;;;;;;;6.07;3.33;;;;;;;;;;5054971;28;20500;-76
2023/04/27 08:54:27;;;;;;;3.40;2.70;;;;;;;;;;5045354;28;20197;-76
2023/04/27 08:56:53;;;;;;;3.10;2.80;;;;;;;;;;5048288;28;20407;-76
2023/04/27 08:59:19;;;;;;;4.07;2.85;;;;;;;;;;5044917;28;20052;-76
2023/04/27 09:01:49;;;;;;;4.30;2.80;;;;;;;;;;5055456;28;20283;-76
2023/04/27 09:04:16;;;;;;;4.95;3.08;;;;;;;;;;5064123;28;20055;-77
2023/04/27 09:06:42;;;;;;;7.60;3.17;;;;;;;;;;5061071;28;20040;-76
2023/04/27 09:09:10;;;;;;;5.22;2.80;;;;;;;;;;5063305;28;20033;-76
2023/04/27 09:11:39;;;;;;;3.22;2.75;;;;;;;;;;5040762;28;20041;-76
2023/04/27 09:14:16;;;;;;;5.55;3.13;;;;;;;;;;5062136;28;20112;-76
2023/04/27 09:16:42;;;;;;;3.40;3.10;;;;;;;;;;5042329;28;20057;-75
2023/04/27 09:19:08;;;;;;;3.95;3.00;;;;;;;;;;5047007;28;20041;-75
2023/04/27 09:21:34;;;;;;;4.90;3.00;;;;;;;;;;5043845;28;20468;-77
2023/04/27 09:24:09;;;;;;;4.18;3.20;;;;;;;;;;5048117;28;20036;-75
2023/04/27 09:26:37;;;;;;;3.10;2.80;;;;;;;;;;5061866;28;20040;-74
2023/04/27 09:29:03;;;;;;;4.80;2.97;;;;;;;;;;5060318;28;20435;-75
2023/04/27 09:31:32;;;;;;;4.57;2.90;;;;;;;;;;5054317;28;20032;-75
2023/04/27 09:33:58;;;;;;;4.63;3.00;;;;;;;;;;5065499;28;20135;-76
2023/04/27 09:36:24;;;;;;;3.55;3.20;;;;;;;;;;5042516;28;20076;-76
2023/04/27 09:38:51;;;;;;;3.72;3.03;;;;;;;;;;5054817;28;20068;-75
2023/04/27 09:41:17;;;;;;;3.65;3.35;;;;;;;;;;5040586;28;20044;-75
2023/04/27 09:43:47;;;;;;;14.88;8.90;;;;;;;;;;5041667;28;20496;-75
2023/04/27 09:46:13;;;;;;;3.78;3.35;;;;;;;;;;5066708;28;20040;-75
2023/04/27 09:48:40;;;;;;;4.70;3.20;;;;;;;;;;5038657;28;20049;-75
2023/04/27 09:51:06;;;;;;;4.05;2.50;;;;;;;;;;5057805;28;20049;-75
2023/04/27 09:53:32;;;;;;;5.68;3.35;;;;;;;;;;5059956;28;20041;-75
2023/04/27 09:56:07;;;;;;;6.00;3.25;;;;;;;;;;5037052;28;20052;-75
2023/04/27 09:58:45;;;;;;;4.05;2.90;;;;;;;;;;5063199;28;20048;-75
2023/04/27 10:01:17;;;;;;;4.45;3.15;;;;;;;;;;5038833;28;20094;-75
2023/04/27 10:04:02;;;;;;;4.28;3.10;;;;;;;;;;5046506;28;20090;-73
2023/04/27 10:06:43;;;;;;;6.63;3.22;;;;;;;;;;5058998;28;20045;-75
2023/04/27 10:09:10;;;;;;;4.82;2.97;;;;;;;;;;5068829;28;20048;-74
2023/04/27 10:11:46;;;;;;;7.53;3.10;;;;;;;;;;5060650;28;20040;-75
2023/04/27 10:14:17;;;;;;;5.32;3.00;;;;;;;;;;5065684;28;20047;-75
2023/04/27 10:16:53;;;;;;;3.30;2.70;;;;;;;;;;5038666;28;20051;-76
2023/04/27 10:19:20;;;;;;;6.80;3.03;;;;;;;;;;5058113;28;20058;-76
2023/04/27 10:22:01;;;;;;;5.63;2.92;;;;;;;;;;5065405;28;20819;-76
2023/04/27 10:24:31;;;;;;;4.80;3.15;;;;;;;;;;5044647;28;20064;-77
2023/04/27 10:27:07;;;;;;;4.50;3.08;;;;;;;;;;5051245;28;20045;-77
2023/04/27 10:29:40;;;;;;;5.15;3.25;;;;;;;;;;5045763;28;20052;-76
2023/04/27 10:32:07;;;;;;;3.33;3.00;;;;;;;;;;5047001;28;20048;-76
2023/04/27 10:34:38;;;;;;;4.88;2.75;;;;;;;;;;5047137;28;20044;-76
2023/04/27 10:37:05;;;;;;;4.97;3.10;;;;;;;;;;5057494;28;20044;-76
2023/04/27 10:39:34;;;;;;;3.83;2.90;;;;;;;;;;5055089;28;20063;-76
2023/04/27 10:42:01;;;;;;;5.55;3.20;;;;;;;;;;5060123;28;20041;-77
2023/04/27 10:44:28;;;;;;;5.03;3.65;;;;;;;;;;5048556;28;20048;-76
2023/04/27 10:46:58;;;;;;;6.18;3.30;;;;;;;;;;5047605;28;20407;-75
2023/04/27 10:49:26;;;;;;;4.10;2.90;;;;;;;;;;5038293;28;20048;-75
2023/04/27 10:51:52;;;;;;;6.00;2.85;;;;;;;;;;5036618;28;20068;-76
2023/04/27 10:54:18;;;;;;;5.82;2.90;;;;;;;;;;5037247;28;20052;-76
2023/04/27 10:56:45;;;;;;;3.97;3.20;;;;;;;;;;5039553;28;20055;-75
2023/04/27 10:59:11;;;;;;;4.53;2.97;;;;;;;;;;5042650;28;20048;-75
2023/04/27 11:01:37;;;;;;;4.78;3.13;;;;;;;;;;5044507;28;20084;-75
2023/04/27 11:04:04;;;;;;;5.05;2.95;;;;;;;;;;5041692;28;20098;-76
2023/04/27 11:06:32;;;;;;;6.78;3.17;;;;;;;;;;5045269;28;20043;-76
2023/04/27 11:08:58;;;;;;;3.78;2.78;;;;;;;;;;5064232;28;20094;-76
2023/04/27 11:11:25;;;;;;;5.15;3.05;;;;;;;;;;5047241;28;20033;-76
2023/04/27 11:13:51;;;;;;;5.13;2.95;;;;;;;;;;5040949;28;20416;-75
2023/04/27 11:16:21;;;;;;;4.95;2.88;;;;;;;;;;5036274;28;20072;-75
2023/04/27 11:18:47;;;;;;;3.90;2.92;;;;;;;;;;5061460;28;20104;-76
2023/04/27 11:21:17;;;;;;;3.65;3.10;;;;;;;;;;5034470;28;20052;-75
2023/04/27 11:23:43;;;;;;;5.43;2.90;;;;;;;;;;5038165;28;20045;-75
2023/04/27 11:26:16;;;;;;;4.63;3.15;;;;;;;;;;5059297;28;20043;-75
2023/04/27 11:29:08;;;;;;;5.07;3.35;;;;;;;;;;5061041;28;20037;-76
2023/04/27 11:31:47;;;;;;;5.68;3.45;;;;;;;;;;5053738;28;20048;-75
2023/04/27 11:34:21;;;;;;;4.80;3.25;;;;;;;;;;5051425;28;20052;-75
2023/04/27 11:37:16;;;;;;;3.78;2.95;;;;;;;;;;5069862;28;20043;-75
2023/04/27 11:39:44;;;;;;;4.30;3.28;;;;;;;;;;5051711;28;20048;-75
2023/04/27 11:42:15;;;;;;;4.57;3.20;;;;;;;;;;5038566;28;20055;-75
2023/04/27 11:44:41;;;;;;;4.25;3.28;;;;;;;;;;5061111;28;20128;-75
2023/04/27 11:47:07;;;;;;;4.10;3.25;;;;;;;;;;5061284;28;20037;-75
2023/04/27 11:49:34;;;;;;;5.00;3.63;;;;;;;;;;5056921;28;20428;-74
2023/04/27 11:52:00;;;;;;;5.85;3.15;;;;;;;;;;5043472;28;20060;-75
2023/04/27 11:54:29;;;;;;;4.35;3.40;;;;;;;;;;5062195;28;21700;-75
2023/04/27 11:57:04;;;;;;;6.47;3.85;;;;;;;;;;5046082;28;20057;-75
2023/04/27 11:59:30;;;;;;;4.40;3.03;;;;;;;;;;5055795;28;20151;-75
2023/04/27 12:01:57;;;;;;;4.88;2.80;;;;;;;;;;5044616;28;20036;-75
2023/04/27 12:04:23;;;;;;;5.05;3.22;;;;;;;;;;5042794;28;20605;-78
2023/04/27 12:06:49;;;;;;;4.10;3.67;;;;;;;;;;5048127;28;20542;-74
2023/04/27 12:09:16;;;;;;;3.33;2.75;;;;;;;;;;5061252;28;20617;-74
2023/04/27 12:11:42;;;;;;;3.92;3.10;;;;;;;;;;5043247;28;20442;-74
2023/04/27 12:14:08;;;;;;;9.13;3.28;;;;;;;;;;5037951;28;20053;-74
2023/04/27 12:16:34;;;;;;;4.30;3.38;;;;;;;;;;5035577;28;20047;-74
2023/04/27 12:19:00;;;;;;;5.70;3.00;;;;;;;;;;5061452;28;20560;-74
2023/04/27 12:21:26;;;;;;;3.30;2.85;;;;;;;;;;5064819;28;20083;-74
2023/04/27 12:23:52;;;;;;;4.88;3.47;;;;;;;;;;5065479;28;20037;-74
2023/04/27 12:26:19;;;;;;;6.72;3.25;;;;;;;;;;5065626;28;20094;-74
2023/04/27 12:28:45;;;;;;;3.58;3.00;;;;;;;;;;5064544;28;20033;-74
2023/04/27 12:31:13;;;;;;;4.20;3.65;;;;;;;;;;5052839;28;20431;-75
2023/04/27 12:33:39;;;;;;;4.50;3.50;;;;;;;;;;5065696;28;20045;-81
2023/04/27 12:36:05;;;;;;;11.95;3.38;;;;;;;;;;5037503;28;20036;-71
2023/04/27 12:38:31;;;;;;;6.18;3.45;;;;;;;;;;5044905;28;20488;-75
2023/04/27 12:40:58;;;;;;;6.95;3.53;;;;;;;;;;5070904;28;20052;-75
2023/04/27 12:43:25;;;;;;;3.83;3.15;;;;;;;;;;5067458;28;20047;-75
2023/04/27 12:45:51;;;;;;;6.50;3.45;;;;;;;;;;5053500;28;20057;-75
2023/04/27 12:48:17;;;;;;;6.18;3.60;;;;;;;;;;5039204;28;20040;-75
2023/04/27 12:50:43;;;;;;;4.32;3.20;;;;;;;;;;5040949;28;20048;-75
2023/04/27 12:53:09;;;;;;;3.88;3.00;;;;;;;;;;5060703;28;20093;-75
2023/04/27 12:55:36;;;;;;;6.65;3.85;;;;;;;;;;5040444;28;20566;-75
2023/04/27 12:58:03;;;;;;;5.70;3.30;;;;;;;;;;5059681;28;20178;-74
2023/04/27 13:00:30;;;;;;;4.88;3.20;;;;;;;;;;5042421;28;20079;-75
2023/04/27 13:02:57;;;;;;;5.20;3.50;;;;;;;;;;5052172;28;20063;-75
2023/04/27 13:05:23;;;;;;;4.65;3.20;;;;;;;;;;5066636;28;20239;-74
2023/04/27 13:07:49;;;;;;;3.53;3.20;;;;;;;;;;5045160;28;20041;-75
2023/04/27 13:10:15;;;;;;;4.30;3.60;;;;;;;;;;5056547;28;20627;-74
2023/04/27 13:12:41;;;;;;;3.65;3.03;;;;;;;;;;5070911;28;20526;-74
2023/04/27 13:15:07;;;;;;;4.32;3.30;;;;;;;;;;5058238;28;20051;-76
2023/04/27 13:17:33;;;;;;;4.40;3.60;;;;;;;;;;5058224;28;20040;-75
2023/04/27 13:19:59;;;;;;;6.45;3.45;;;;;;;;;;5062356;28;20082;-75
2023/04/27 13:22:25;;;;;;;6.57;3.65;;;;;;;;;;5046345;28;20045;-76
2023/04/27 13:24:51;;;;;;;3.72;3.17;;;;;;;;;;5043528;28;20044;-76
2023/04/27 13:27:19;;;;;;;5.78;3.45;;;;;;;;;;5041615;28;20044;-76
2023/04/27 13:29:48;;;;;;;6.78;3.80;;;;;;;;;;5059328;28;20040;-76
2023/04/27 13:32:14;;;;;;;5.78;3.58;;;;;;;;;;5064252;28;20053;-76
2023/04/27 13:34:40;;;;;;;4.93;3.88;;;;;;;;;;5054018;28;20105;-76
2023/04/27 13:37:06;;;;;;;4.03;3.38;;;;;;;;;;5069949;28;20056;-76
2023/04/27 13:39:33;;;;;;;4.45;3.40;;;;;;;;;;5045339;28;20053;-75
2023/04/27 13:41:59;;;;;;;5.60;4.18;;;;;;;;;;5073467;28;20036;-76
2023/04/27 13:44:25;;;;;;;7.28;4.30;;;;;;;;;;5062579;28;20107;-76
2023/04/27 13:46:51;;;;;;;6.20;4.28;;;;;;;;;;5051852;28;20518;-76
2023/04/27 13:49:17;;;;;;;6.82;3.90;;;;;;;;;;5047054;28;20048;-76
2023/04/27 13:51:43;;;;;;;4.65;3.65;;;;;;;;;;5059694;28;20052;-76
2023/04/27 13:54:09;;;;;;;5.05;3.47;;;;;;;;;;5061355;28;20095;-75
2023/04/27 13:56:36;;;;;;;6.38;4.30;;;;;;;;;;5068493;28;20059;-75
2023/04/27 13:59:02;;;;;;;7.28;4.68;;;;;;;;;;5068026;28;20581;-75
2023/04/27 14:01:29;;;;;;;6.15;4.20;;;;;;;;;;5044008;28;20048;-75
2023/04/27 14:03:55;;;;;;;5.68;3.90;;;;;;;;;;5036155;28;20120;-75
2023/04/27 14:06:21;;;;;;;8.68;4.30;;;;;;;;;;5060638;28;20048;-76
2023/04/27 14:08:47;;;;;;;6.65;4.55;;;;;;;;;;5037212;28;20099;-76
2023/04/27 14:11:13;;;;;;;6.10;4.30;;;;;;;;;;5040794;28;20040;-76
2023/04/27 14:13:39;;;;;;;8.00;4.55;;;;;;;;;;5044248;28;20044;-76
2023/04/27 14:16:06;;;;;;;7.43;3.83;;;;;;;;;;5054095;28;20044;-76
2023/04/27 14:18:32;;;;;;;8.82;4.38;;;;;;;;;;5041030;28;20048;-77
2023/04/27 14:20:58;;;;;;;6.70;4.15;;;;;;;;;;5064130;28;20048;-78
2023/04/27 14:23:24;;;;;;;7.25;4.65;;;;;;;;;;5054429;28;20044;-78
2023/04/27 14:25:50;;;;;;;7.32;4.30;;;;;;;;;;5062159;28;20052;-77
2023/04/27 14:28:16;;;;;;;7.32;3.75;;;;;;;;;;5050222;28;20052;-77
2023/04/27 14:30:42;;;;;;;4.97;4.47;;;;;;;;;;5061395;28;20032;-77
2023/04/27 14:33:08;;;;;;;7.55;4.20;;;;;;;;;;5066560;28;20048;-78
2023/04/27 14:35:35;;;;;;;6.85;3.85;;;;;;;;;;5067536;28;20048;-80
2023/04/27 14:38:02;;;;;;;6.10;4.00;;;;;;;;;;5060866;28;20053;-78
2023/04/27 14:40:31;;;;;;;7.20;3.60;;;;;;;;;;5043069;28;20041;-78